Time;durP1;ratioP1;P1;durP2;ratioP2;P2;SDS_P1;SDS_P2;PMS_P1;PMS_P2;Temp;Humidity;BMP_temperature;BMP_pressure;BME280_temperature;BME280_humidity;BME280_pressure;Samples;Min_cycle;Max_cycle;Signal;HPM_P1;HPM_P2
2024/04/01 00:01:03;;;;;;;34.42;32.80;;;10.10;99.90;;;;;;5050631;28;20044;-73
2024/04/01 00:03:29;;;;;;;31.35;29.90;;;10.10;99.90;;;;;;5052703;28;20492;-73
2024/04/01 00:05:56;;;;;;;28.67;27.38;;;10.10;99.90;;;;;;5051055;28;20477;-73
2024/04/01 00:08:22;;;;;;;48.40;45.97;;;10.10;99.90;;;;;;5052668;28;20040;-73
2024/04/01 00:10:49;;;;;;;71.38;67.90;;;10.10;99.90;;;;;;5051748;28;20036;-72
2024/04/01 00:13:15;;;;;;;51.58;49.10;;;10.10;99.90;;;;;;5052565;28;20051;-73
2024/04/01 00:15:42;;;;;;;34.10;32.53;;;10.10;99.90;;;;;;5051397;28;20033;-72
2024/04/01 00:18:08;;;;;;;48.25;45.95;;;10.10;99.90;;;;;;5052332;28;20033;-72
2024/04/01 00:20:34;;;;;;;31.85;30.35;;;10.10;99.90;;;;;;5051895;28;20021;-72
2024/04/01 00:23:00;;;;;;;50.80;47.88;;;10.00;99.90;;;;;;5052134;28;20513;-72
2024/04/01 00:25:26;;;;;;;36.03;34.33;;;10.00;99.90;;;;;;5046817;28;20406;-73
2024/04/01 00:27:52;;;;;;;23.13;22.05;;;9.90;99.90;;;;;;5032253;28;20022;-72
2024/04/01 00:30:19;;;;;;;31.33;29.85;;;10.00;99.90;;;;;;5032859;28;20037;-73
2024/04/01 00:32:45;;;;;;;35.58;33.90;;;10.00;99.90;;;;;;5052078;28;20040;-72
2024/04/01 00:35:11;;;;;;;40.50;38.58;;;9.90;99.90;;;;;;5066801;28;20029;-73
2024/04/01 00:37:38;;;;;;;30.77;29.33;;;10.00;99.90;;;;;;5052148;28;20071;-72
2024/04/01 00:40:07;;;;;;;25.77;24.58;;;10.00;99.90;;;;;;5051866;28;20370;-73
2024/04/01 00:42:34;;;;;;;26.25;25.02;;;10.00;99.90;;;;;;5052972;28;20025;-73
2024/04/01 00:45:00;;;;;;;27.10;25.80;;;10.00;99.90;;;;;;5055958;28;20623;-73
2024/04/01 00:47:26;;;;;;;24.95;23.77;;;10.00;99.90;;;;;;5055399;28;20033;-73
2024/04/01 00:49:53;;;;;;;37.83;36.03;;;10.00;99.90;;;;;;5056001;28;20032;-73
2024/04/01 00:52:19;;;;;;;35.00;33.38;;;10.00;99.90;;;;;;5054365;28;20393;-72
2024/04/01 00:54:45;;;;;;;28.77;27.45;;;9.90;99.90;;;;;;5054338;28;20370;-72
2024/04/01 00:57:13;;;;;;;28.13;26.80;;;9.90;99.90;;;;;;5055207;28;20049;-73
2024/04/01 00:59:39;;;;;;;35.70;34.03;;;10.00;99.90;;;;;;5054729;28;20032;-73
2024/04/01 01:02:05;;;;;;;27.08;25.83;;;9.90;99.90;;;;;;5054981;28;20405;-73
2024/04/01 01:04:31;;;;;;;40.75;38.78;;;9.90;99.90;;;;;;5054715;28;20059;-73
2024/04/01 01:06:57;;;;;;;37.38;35.60;;;9.80;99.90;;;;;;5054770;28;20033;-73
2024/04/01 01:09:24;;;;;;;24.58;23.48;;;9.80;99.90;;;;;;5055381;28;20017;-72
2024/04/01 01:11:50;;;;;;;25.42;24.23;;;9.70;99.90;;;;;;5053832;28;20635;-77
2024/04/01 01:14:16;;;;;;;27.05;25.80;;;9.80;99.90;;;;;;5054457;28;20032;-77
2024/04/01 01:16:42;;;;;;;47.38;45.15;;;9.80;99.90;;;;;;5054809;28;20041;-78
2024/04/01 01:19:09;;;;;;;31.48;30.00;;;9.80;99.90;;;;;;5055475;28;20037;-77
2024/04/01 01:21:35;;;;;;;29.60;28.23;;;9.80;99.90;;;;;;5053794;28;20060;-78
2024/04/01 01:24:01;;;;;;;42.13;40.10;;;9.90;99.90;;;;;;5053946;28;20032;-77
2024/04/01 01:26:28;;;;;;;43.33;41.30;;;9.90;99.90;;;;;;5041617;28;20042;-77
2024/04/01 01:28:54;;;;;;;58.08;55.33;;;9.80;99.90;;;;;;5034229;28;20038;-77
2024/04/01 01:31:20;;;;;;;24.40;23.00;;;9.90;99.90;;;;;;5044541;28;20409;-78
2024/04/01 01:33:47;;;;;;;27.85;26.58;;;9.80;99.90;;;;;;5053810;28;20048;-77
2024/04/01 01:36:13;;;;;;;26.02;24.73;;;9.80;99.90;;;;;;5045339;28;20482;-77
2024/04/01 01:38:39;;;;;;;33.05;31.50;;;9.70;99.90;;;;;;5054080;28;20028;-78
2024/04/01 01:41:05;;;;;;;30.30;28.90;;;9.80;99.90;;;;;;5054757;28;20040;-77
2024/04/01 01:43:31;;;;;;;49.00;46.67;;;9.80;99.90;;;;;;5070493;28;20037;-77
2024/04/01 01:45:57;;;;;;;34.35;32.72;;;9.80;99.90;;;;;;5054072;28;20033;-77
2024/04/01 01:48:23;;;;;;;32.40;30.90;;;9.80;99.90;;;;;;5055064;28;20032;-77
2024/04/01 01:50:49;;;;;;;28.23;26.92;;;9.80;99.90;;;;;;5054879;28;20370;-77
2024/04/01 01:53:15;;;;;;;29.15;27.80;;;9.80;99.90;;;;;;5054383;28;20033;-77
2024/04/01 01:55:42;;;;;;;27.25;26.00;;;9.70;99.90;;;;;;5054420;28;20040;-77
2024/04/01 01:58:08;;;;;;;30.25;28.85;;;9.70;99.90;;;;;;5054992;28;20029;-77
2024/04/01 02:00:34;;;;;;;33.60;32.05;;;9.70;99.90;;;;;;5053304;28;20482;-77
2024/04/01 02:03:00;;;;;;;39.85;37.97;;;9.70;99.90;;;;;;5048304;28;20059;-77
2024/04/01 02:05:26;;;;;;;27.90;26.60;;;9.70;99.90;;;;;;5034577;28;20032;-77
2024/04/01 02:07:52;;;;;;;31.50;30.05;;;9.80;99.90;;;;;;5031067;28;20470;-77
2024/04/01 02:10:22;;;;;;;47.13;44.90;;;9.80;99.90;;;;;;5031765;28;20030;-77
2024/04/01 02:12:49;;;;;;;47.15;44.95;;;9.70;99.90;;;;;;5033068;28;20048;-77
2024/04/01 02:15:19;;;;;;;42.20;40.22;;;9.70;99.90;;;;;;5033232;28;20022;-78
2024/04/01 02:17:45;;;;;;;31.03;29.60;;;9.70;99.90;;;;;;5052060;28;20039;-77
2024/04/01 02:20:15;;;;;;;30.77;29.38;;;9.80;99.90;;;;;;5052538;28;20772;-73
2024/04/01 02:22:45;;;;;;;33.10;31.53;;;9.80;99.90;;;;;;5053608;28;20056;-73
2024/04/01 02:25:12;;;;;;;35.55;33.90;;;9.80;99.90;;;;;;5035266;28;20041;-72
2024/04/01 02:27:39;;;;;;;38.13;36.33;;;9.80;99.90;;;;;;5032333;28;20494;-72
2024/04/01 02:30:06;;;;;;;36.35;34.65;;;9.90;99.90;;;;;;5033294;28;20488;-72
2024/04/01 02:32:32;;;;;;;32.85;31.30;;;9.90;99.90;;;;;;5052315;28;20037;-72
2024/04/01 02:34:58;;;;;;;31.23;29.77;;;9.90;99.90;;;;;;5046085;28;20026;-72
2024/04/01 02:37:24;;;;;;;48.97;46.65;;;9.90;99.90;;;;;;5040373;28;20041;-72
2024/04/01 02:39:50;;;;;;;38.60;36.80;;;9.70;99.90;;;;;;5033764;28;20395;-72
2024/04/01 02:42:16;;;;;;;35.33;33.67;;;9.70;99.90;;;;;;5051210;28;20033;-72
2024/04/01 02:44:42;;;;;;;43.92;41.85;;;9.80;99.90;;;;;;5054079;28;20029;-72
2024/04/01 02:47:08;;;;;;;49.05;46.70;;;9.80;99.90;;;;;;5053038;28;20060;-72
2024/04/01 02:49:35;;;;;;;53.28;50.72;;;9.80;99.90;;;;;;5053729;28;20029;-72
2024/04/01 02:52:01;;;;;;;56.92;54.22;;;9.90;99.90;;;;;;5053477;28;20053;-73
2024/04/01 02:54:27;;;;;;;49.72;47.38;;;9.90;99.90;;;;;;5053794;28;20028;-73
2024/04/01 02:56:54;;;;;;;51.22;48.78;;;10.00;99.90;;;;;;5053486;28;20033;-73
2024/04/01 02:59:20;;;;;;;49.45;47.10;;;10.00;99.90;;;;;;5053570;28;20040;-73
2024/04/01 03:01:46;;;;;;;45.90;43.72;;;10.00;99.90;;;;;;5052734;28;20087;-73
2024/04/01 03:04:12;;;;;;;46.78;44.58;;;10.00;99.90;;;;;;5052422;28;20017;-73
2024/04/01 03:06:38;;;;;;;46.10;43.95;;;10.00;99.90;;;;;;5053202;28;20041;-73
2024/04/01 03:09:05;;;;;;;64.35;61.30;;;10.00;99.90;;;;;;5068641;28;20033;-72
2024/04/01 03:11:31;;;;;;;49.78;47.40;;;10.00;99.90;;;;;;5052943;28;20381;-72
2024/04/01 03:13:58;;;;;;;53.22;50.67;;;10.00;99.90;;;;;;5052090;28;20024;-72
2024/04/01 03:16:24;;;;;;;60.88;57.97;;;9.90;99.90;;;;;;5052680;28;20059;-73
2024/04/01 03:18:50;;;;;;;36.85;35.13;;;9.90;99.90;;;;;;5053167;28;20029;-72
2024/04/01 03:21:16;;;;;;;26.23;25.00;;;9.80;99.90;;;;;;5052673;28;20037;-72
2024/04/01 03:23:43;;;;;;;25.38;24.20;;;9.70;99.90;;;;;;5053222;28;20044;-73
2024/04/01 03:26:09;;;;;;;22.20;21.17;;;9.80;99.90;;;;;;5042635;28;20046;-72
2024/04/01 03:28:35;;;;;;;29.42;28.05;;;9.80;99.90;;;;;;5033387;28;20392;-73
2024/04/01 03:31:05;;;;;;;25.92;24.73;;;9.80;99.90;;;;;;5039497;28;20054;-72
2024/04/01 03:33:32;;;;;;;80.00;76.20;;;9.70;99.90;;;;;;5052668;28;20049;-72
2024/04/01 03:35:58;;;;;;;29.13;27.75;;;9.80;99.90;;;;;;5052260;28;20033;-72
2024/04/01 03:38:24;;;;;;;32.92;31.38;;;9.70;99.90;;;;;;5052966;28;20032;-72
2024/04/01 03:40:50;;;;;;;34.88;33.22;;;9.70;99.90;;;;;;5052474;28;20024;-72
2024/04/01 03:43:16;;;;;;;22.10;21.08;;;9.70;99.90;;;;;;5053087;28;20040;-73
2024/04/01 03:45:42;;;;;;;33.03;31.45;;;9.80;99.90;;;;;;5051824;28;20477;-72
2024/04/01 03:48:08;;;;;;;28.95;27.65;;;9.80;99.90;;;;;;5052735;28;20078;-72
2024/04/01 03:50:43;;;;;;;43.65;41.60;;;9.80;99.90;;;;;;5052141;28;20389;-72
2024/04/01 03:53:09;;;;;;;35.85;34.17;;;9.80;99.90;;;;;;5051343;28;20052;-72
2024/04/01 03:55:35;;;;;;;25.33;24.17;;;9.80;99.90;;;;;;5052164;28;20029;-72
2024/04/01 03:58:01;;;;;;;28.35;27.02;;;9.80;99.90;;;;;;5052708;28;20037;-72
2024/04/01 04:00:27;;;;;;;33.47;31.92;;;9.80;99.90;;;;;;5051513;28;20032;-72
2024/04/01 04:02:53;;;;;;;34.28;32.50;;;9.80;99.90;;;;;;5052554;28;20497;-75
2024/04/01 04:05:20;;;;;;;31.75;30.25;;;9.80;99.90;;;;;;5052076;28;20029;-75
2024/04/01 04:07:46;;;;;;;31.80;30.33;;;9.80;99.90;;;;;;5052804;28;20041;-76
2024/04/01 04:10:12;;;;;;;28.75;27.42;;;9.70;99.90;;;;;;5051880;28;20029;-75
2024/04/01 04:12:38;;;;;;;28.30;27.00;;;9.70;99.90;;;;;;5052350;28;20033;-76
2024/04/01 04:15:05;;;;;;;27.60;26.30;;;9.70;99.90;;;;;;5051928;28;20025;-76
2024/04/01 04:17:31;;;;;;;35.03;33.38;;;9.70;99.90;;;;;;5051209;28;20497;-75
2024/04/01 04:19:57;;;;;;;29.67;28.27;;;9.70;99.90;;;;;;5052364;28;20025;-76
2024/04/01 04:22:24;;;;;;;28.30;26.95;;;9.60;99.90;;;;;;5051559;28;20040;-75
2024/04/01 04:24:50;;;;;;;26.48;25.27;;;9.70;99.90;;;;;;5052285;28;20028;-76
2024/04/01 04:27:16;;;;;;;26.27;25.08;;;9.70;99.90;;;;;;5031702;28;20085;-76
2024/04/01 04:29:42;;;;;;;28.20;26.90;;;9.70;99.90;;;;;;5032380;28;20025;-76
2024/04/01 04:32:09;;;;;;;26.17;24.95;;;9.70;99.90;;;;;;5047129;28;20045;-76
2024/04/01 04:34:36;;;;;;;33.58;32.03;;;9.60;99.90;;;;;;5047482;28;20045;-75
2024/04/01 04:37:05;;;;;;;30.40;28.95;;;9.60;99.90;;;;;;5047054;28;20036;-76
2024/04/01 04:39:35;;;;;;;33.72;31.33;;;9.70;99.90;;;;;;5051153;28;20048;-75
2024/04/01 04:42:01;;;;;;;32.92;31.38;;;9.70;99.90;;;;;;5051420;28;20060;-76
2024/04/01 04:44:27;;;;;;;33.88;32.28;;;9.70;99.90;;;;;;5052315;28;20037;-76
2024/04/01 04:46:54;;;;;;;58.75;55.95;;;9.60;99.90;;;;;;5050173;28;20029;-76
2024/04/01 04:49:20;;;;;;;50.30;47.90;;;9.70;99.90;;;;;;5051969;28;20033;-76
2024/04/01 04:51:46;;;;;;;58.63;55.80;;;9.60;99.90;;;;;;5051422;28;20033;-76
2024/04/01 04:54:12;;;;;;;64.65;61.42;;;9.70;99.90;;;;;;5052097;28;20036;-75
2024/04/01 04:56:38;;;;;;;57.65;54.90;;;9.70;99.90;;;;;;5049490;28;20044;-75
2024/04/01 04:59:05;;;;;;;47.50;45.15;;;9.70;99.90;;;;;;5051858;28;20029;-75
2024/04/01 05:01:31;;;;;;;112.43;106.28;;;9.70;99.90;;;;;;5050783;28;20045;-75
2024/04/01 05:03:58;;;;;;;37.28;35.53;;;9.70;99.90;;;;;;5051767;28;20033;-76
2024/04/01 05:06:24;;;;;;;33.10;31.55;;;9.70;99.90;;;;;;5051407;28;20056;-72
2024/04/01 05:08:50;;;;;;;32.90;31.38;;;9.70;99.90;;;;;;5052060;28;20032;-73
2024/04/01 05:11:16;;;;;;;28.63;27.30;;;9.70;99.90;;;;;;5051421;28;20041;-73
2024/04/01 05:13:43;;;;;;;24.73;23.58;;;9.70;99.90;;;;;;5051691;28;20496;-73
2024/04/01 05:16:09;;;;;;;25.20;24.00;;;9.60;99.90;;;;;;5065929;28;20033;-72
2024/04/01 05:18:35;;;;;;;40.72;38.60;;;9.70;99.90;;;;;;5051975;28;20025;-73
2024/04/01 05:21:01;;;;;;;36.65;34.95;;;9.60;99.90;;;;;;5051977;28;20041;-73
2024/04/01 05:23:27;;;;;;;28.15;26.83;;;9.70;99.90;;;;;;5051634;28;20049;-73
2024/04/01 05:25:54;;;;;;;53.05;50.50;;;9.60;99.90;;;;;;5042441;28;20030;-73
2024/04/01 05:28:21;;;;;;;50.40;48.03;;;9.60;99.90;;;;;;5034484;28;20038;-73
2024/04/01 05:30:52;;;;;;;51.47;49.03;;;9.60;99.90;;;;;;5039231;28;20060;-73
2024/04/01 05:33:22;;;;;;;47.72;45.35;;;9.60;99.90;;;;;;5055465;28;20044;-73
2024/04/01 05:35:48;;;;;;;35.88;34.13;;;9.60;99.90;;;;;;5053897;28;20052;-73
2024/04/01 05:38:18;;;;;;;61.55;58.65;;;9.50;99.90;;;;;;5055579;28;20037;-73
2024/04/01 05:40:44;;;;;;;71.03;67.68;;;9.50;99.90;;;;;;5055094;28;20085;-73
2024/04/01 05:43:10;;;;;;;56.83;53.67;;;9.60;99.90;;;;;;5055043;28;20040;-73
2024/04/01 05:45:36;;;;;;;57.85;55.05;;;9.50;99.90;;;;;;5054542;28;20041;-73
2024/04/01 05:48:03;;;;;;;46.78;44.35;;;9.50;99.90;;;;;;5055415;28;20041;-73
2024/04/01 05:50:29;;;;;;;47.97;45.70;;;9.40;99.90;;;;;;5054398;28;20044;-73
2024/04/01 05:52:55;;;;;;;45.35;43.20;;;9.50;99.90;;;;;;5055322;28;20036;-73
2024/04/01 05:55:21;;;;;;;34.72;33.10;;;9.50;99.90;;;;;;5054512;28;20410;-73
2024/04/01 05:57:47;;;;;;;58.47;55.67;;;9.50;99.90;;;;;;5054856;28;20037;-73
2024/04/01 06:00:14;;;;;;;47.15;44.90;;;9.50;99.90;;;;;;5053887;28;20029;-73
2024/04/01 06:02:40;;;;;;;54.28;51.70;;;9.60;99.90;;;;;;5055031;28;20029;-73
2024/04/01 06:05:06;;;;;;;79.65;75.80;;;9.60;99.90;;;;;;5054735;28;20024;-73
2024/04/01 06:07:32;;;;;;;54.30;51.72;;;9.50;99.90;;;;;;5054583;28;20382;-74
2024/04/01 06:09:59;;;;;;;62.78;59.75;;;9.60;99.90;;;;;;5054811;28;20048;-73
2024/04/01 06:12:26;;;;;;;32.03;30.52;;;9.60;99.90;;;;;;5053611;28;20389;-73
2024/04/01 06:14:52;;;;;;;31.92;30.42;;;9.60;99.90;;;;;;5054950;28;20048;-72
2024/04/01 06:17:18;;;;;;;29.38;27.75;;;9.50;99.90;;;;;;5053865;28;20398;-72
2024/04/01 06:19:44;;;;;;;38.88;37.05;;;9.60;99.90;;;;;;5052848;28;20040;-72
2024/04/01 06:22:10;;;;;;;45.63;43.45;;;9.60;99.90;;;;;;5053878;28;20064;-72
2024/04/01 06:24:37;;;;;;;46.92;44.58;;;9.60;99.90;;;;;;5054471;28;20458;-72
2024/04/01 06:27:04;;;;;;;62.45;59.47;;;9.70;99.90;;;;;;5034132;28;20033;-72
2024/04/01 06:29:30;;;;;;;61.90;58.97;;;9.80;99.90;;;;;;5034695;28;20540;-72
2024/04/01 06:31:56;;;;;;;40.50;36.55;;;9.90;99.90;;;;;;5047952;28;20053;-72
2024/04/01 06:34:23;;;;;;;44.10;42.00;;;10.00;99.90;;;;;;5054181;28;20485;-71
2024/04/01 06:36:49;;;;;;;44.95;42.38;;;10.20;99.90;;;;;;5053731;28;20390;-71
2024/04/01 06:39:16;;;;;;;64.82;61.72;;;10.30;99.90;;;;;;5054269;28;20385;-72
2024/04/01 06:41:45;;;;;;;98.00;93.22;;;10.50;99.90;;;;;;5052930;28;20037;-71
2024/04/01 06:44:11;;;;;;;49.85;47.50;;;10.70;99.90;;;;;;5054040;28;20033;-71
2024/04/01 06:46:37;;;;;;;71.78;66.28;;;10.90;99.90;;;;;;5053088;28;20033;-72
2024/04/01 06:49:04;;;;;;;55.63;52.67;;;11.00;99.90;;;;;;5054049;28;20055;-73
2024/04/01 06:51:33;;;;;;;32.50;31.00;;;11.10;99.90;;;;;;5053461;28;20040;-72
2024/04/01 06:53:59;;;;;;;42.97;40.97;;;11.10;99.90;;;;;;5053884;28;20025;-72
2024/04/01 06:56:25;;;;;;;47.92;45.65;;;11.10;99.90;;;;;;5053064;28;20397;-72
2024/04/01 06:58:51;;;;;;;46.65;44.20;;;11.10;99.90;;;;;;5054418;28;20588;-73
2024/04/01 07:01:17;;;;;;;33.08;31.42;;;11.10;99.90;;;;;;5052903;28;20036;-72
2024/04/01 07:03:43;;;;;;;52.72;50.25;;;11.30;99.90;;;;;;5053590;28;20040;-72
2024/04/01 07:06:09;;;;;;;53.50;51.00;;;11.40;99.90;;;;;;5052137;28;20033;-72
2024/04/01 07:08:36;;;;;;;63.95;60.83;;;11.60;99.90;;;;;;5053600;28;20044;-72
2024/04/01 07:11:02;;;;;;;40.30;38.40;;;11.80;99.90;;;;;;5052833;28;20096;-72
2024/04/01 07:13:29;;;;;;;22.52;21.45;;;11.90;99.90;;;;;;5053488;28;20033;-72
2024/04/01 07:15:56;;;;;;;38.42;36.45;;;12.00;99.90;;;;;;5052937;28;20403;-72
2024/04/01 07:18:24;;;;;;;35.03;33.38;;;12.10;99.90;;;;;;5053307;28;20048;-72
2024/04/01 07:20:50;;;;;;;35.40;33.60;;;12.20;99.90;;;;;;5051619;28;20512;-72
2024/04/01 07:23:16;;;;;;;24.80;23.65;;;12.30;99.90;;;;;;5053219;28;20052;-72
2024/04/01 07:25:42;;;;;;;36.50;34.78;;;12.30;99.90;;;;;;5045283;28;20036;-73
2024/04/01 07:28:08;;;;;;;33.75;32.15;;;12.40;99.90;;;;;;5033509;28;20025;-73
2024/04/01 07:30:34;;;;;;;23.08;22.00;;;12.30;99.90;;;;;;5034417;28;20039;-72
2024/04/01 07:33:00;;;;;;;21.30;19.63;;;12.30;99.90;;;;;;5052931;28;20044;-75
2024/04/01 07:35:27;;;;;;;42.40;40.40;;;12.20;99.90;;;;;;5052701;28;20040;-76
2024/04/01 07:37:53;;;;;;;31.05;29.58;;;12.00;99.90;;;;;;5053417;28;20041;-78
2024/04/01 07:40:19;;;;;;;23.35;22.27;;;12.00;99.90;;;;;;5052153;28;20040;-76
2024/04/01 07:42:45;;;;;;;24.80;23.65;;;12.10;99.90;;;;;;5051855;28;20036;-76
2024/04/01 07:45:14;;;;;;;23.98;22.85;;;12.30;99.90;;;;;;5052434;28;20036;-76
2024/04/01 07:47:40;;;;;;;28.30;27.00;;;12.50;99.90;;;;;;5052962;28;20041;-76
2024/04/01 07:50:07;;;;;;;25.20;24.02;;;12.70;99.90;;;;;;5052555;28;20377;-76
2024/04/01 07:52:33;;;;;;;38.67;36.60;;;12.90;99.90;;;;;;5052118;28;20048;-77
2024/04/01 07:54:59;;;;;;;32.70;31.17;;;13.10;99.90;;;;;;5052389;28;20055;-76
2024/04/01 07:57:30;;;;;;;35.25;33.60;;;13.20;99.90;;;;;;5052369;28;20029;-76
2024/04/01 07:59:56;;;;;;;;;;;13.30;99.90;;;;;;5053280;28;20120;-75
2024/04/01 08:02:23;;;;;;;26.02;24.80;;;13.50;99.90;;;;;;5051653;28;19909;-76
2024/04/01 08:04:49;;;;;;;30.70;29.25;;;13.70;99.90;;;;;;5052742;28;20477;-76
2024/04/01 08:07:15;;;;;;;23.05;21.95;;;13.80;99.90;;;;;;5052122;28;20029;-76
2024/04/01 08:09:42;;;;;;;28.88;27.48;;;13.90;99.90;;;;;;5052107;28;20056;-76
2024/04/01 08:12:08;;;;;;;50.03;47.65;;;13.90;99.90;;;;;;5052170;28;20060;-76
2024/04/01 08:14:37;;;;;;;44.22;42.10;;;14.00;99.90;;;;;;5052143;28;20033;-76
2024/04/01 08:17:04;;;;;;;42.60;40.60;;;14.20;99.90;;;;;;5049639;28;20033;-76
2024/04/01 08:19:30;;;;;;;88.72;84.45;;;14.40;99.90;;;;;;5052346;28;20052;-76
2024/04/01 08:21:56;;;;;;;102.63;97.70;;;14.40;99.90;;;;;;5051772;28;20402;-76
2024/04/01 08:24:23;;;;;;;260.23;246.85;;;14.50;99.90;;;;;;5052109;28;20032;-76
2024/04/01 08:26:49;;;;;;;277.50;263.10;;;14.60;99.90;;;;;;5035606;28;20026;-76
2024/04/01 08:29:16;;;;;;;246.60;234.00;;;14.70;99.90;;;;;;5031324;28;20030;-76
2024/04/01 08:31:42;;;;;;;162.10;154.25;;;14.80;99.90;;;;;;5043936;28;20044;-76
2024/04/01 08:34:09;;;;;;;184.45;175.38;;;14.80;99.90;;;;;;5052090;28;20390;-73
2024/04/01 08:36:36;;;;;;;115.20;109.43;;;14.70;99.90;;;;;;5031779;28;20033;-73
2024/04/01 08:39:03;;;;;;;142.48;135.52;;;14.70;99.90;;;;;;5032352;28;20485;-72
2024/04/01 08:41:49;;;;;;;127.05;120.32;;;14.90;99.90;;;;;;5042904;28;20037;-72
2024/04/01 08:44:15;;;;;;;93.18;88.45;;;15.20;99.90;;;;;;5051003;28;20040;-72
2024/04/01 08:46:46;;;;;;;76.00;72.35;;;15.30;99.90;;;;;;5051127;28;20032;-73
2024/04/01 08:49:13;;;;;;;78.82;75.03;;;15.10;99.90;;;;;;5051574;28;20041;-73
2024/04/01 08:51:39;;;;;;;84.95;80.85;;;15.00;99.90;;;;;;5049806;28;20044;-72
2024/04/01 08:54:09;;;;;;;98.53;93.82;;;14.90;99.90;;;;;;5052135;28;20040;-72
2024/04/01 08:56:39;;;;;;;1999.90;999.90;;;14.90;99.90;;;;;;5051566;28;20025;-73
2024/04/01 08:59:07;;;;;;;1999.90;999.90;;;14.80;99.90;;;;;;5051824;28;20037;-72
2024/04/01 09:01:33;;;;;;;1999.90;999.90;;;14.80;99.90;;;;;;5050147;28;20037;-73
2024/04/01 09:03:59;;;;;;;1999.90;999.90;;;14.90;99.90;;;;;;5054813;28;20040;-73
2024/04/01 09:06:25;;;;;;;1999.90;999.90;;;15.10;99.90;;;;;;5055226;28;20029;-72
2024/04/01 09:08:53;;;;;;;1999.90;999.90;;;15.30;99.90;;;;;;5054729;28;20043;-72
2024/04/01 09:11:22;;;;;;;1999.90;999.90;;;15.40;99.90;;;;;;5053245;28;20045;-73
2024/04/01 09:13:51;;;;;;;1999.90;999.90;;;15.50;99.90;;;;;;5054456;28;20052;-73
2024/04/01 09:16:25;;;;;;;1999.90;999.90;;;15.60;99.90;;;;;;5054883;28;20041;-73
2024/04/01 09:18:51;;;;;;;1999.90;999.90;;;15.70;99.90;;;;;;5054615;28;20033;-72
2024/04/01 09:21:19;;;;;;;1999.90;999.90;;;15.60;99.90;;;;;;5054717;28;20028;-73
2024/04/01 09:23:46;;;;;;;1999.90;999.90;;;15.50;99.90;;;;;;5055535;28;20033;-72
2024/04/01 09:26:13;;;;;;;1999.90;999.90;;;15.50;99.90;;;;;;5043791;28;20029;-73
2024/04/01 09:28:39;;;;;;;1999.90;999.90;;;15.40;99.90;;;;;;5034888;28;20379;-72
2024/04/01 09:31:06;;;;;;;1999.90;999.90;;;15.40;99.90;;;;;;5042123;28;20508;-73
2024/04/01 09:33:32;;;;;;;1999.90;999.90;;;15.30;99.90;;;;;;5054111;28;20048;-72
2024/04/01 09:35:59;;;;;;;1999.90;999.90;;;15.40;99.90;;;;;;5054733;28;20397;-73
2024/04/01 09:38:25;;;;;;;1999.90;999.90;;;15.50;99.90;;;;;;5054091;28;20040;-73
2024/04/01 09:40:52;;;;;;;1999.90;999.90;;;15.60;99.90;;;;;;5054812;28;20036;-73
2024/04/01 09:43:30;;;;;;;1999.90;999.90;;;15.80;99.90;;;;;;5054152;28;20032;-73
2024/04/01 09:45:59;;;;;;;1999.90;999.90;;;15.90;99.90;;;;;;5053025;28;20040;-73
2024/04/01 09:48:26;;;;;;;1999.90;999.90;;;15.80;99.90;;;;;;5054060;28;20469;-73
2024/04/01 09:50:56;;;;;;;1999.90;999.90;;;15.60;99.90;;;;;;5054421;28;20033;-73
2024/04/01 09:53:22;;;;;;;1999.90;999.90;;;15.00;99.90;;;;;;5054961;28;20496;-73
2024/04/01 09:56:00;;;;;;;1999.90;999.90;;;14.30;99.90;;;;;;5053519;28;20047;-73
2024/04/01 09:58:47;;;;;;;1999.90;999.90;;;13.90;99.90;;;;;;5055011;28;20029;-73
2024/04/01 10:01:42;;;;;;;1999.90;999.90;;;13.50;99.90;;;;;;5053920;28;20037;-73
2024/04/01 10:04:26;;;;;;;1999.90;999.90;;;13.30;99.90;;;;;;5054769;28;20029;-73
2024/04/01 10:06:52;;;;;;;1999.90;999.90;;;12.90;99.90;;;;;;5069705;28;20041;-73
2024/04/01 10:09:37;;;;;;;1999.90;999.90;;;12.70;99.90;;;;;;5054852;28;20385;-73
2024/04/01 10:12:40;;;;;;;1999.90;999.90;;;12.80;99.90;;;;;;5054435;28;20041;-73
2024/04/01 10:15:34;;;;;;;1999.90;999.90;;;13.30;99.90;;;;;;5053818;28;20381;-73
2024/04/01 10:18:13;;;;;;;1999.90;999.90;;;13.70;99.90;;;;;;5054706;28;20462;-73
2024/04/01 10:20:58;;;;;;;1999.90;999.90;;;13.80;99.90;;;;;;5052771;28;20037;-73
2024/04/01 10:23:52;;;;;;;1999.90;999.90;;;13.90;99.90;;;;;;5054501;28;20045;-73
2024/04/01 10:26:30;;;;;;;1999.90;999.90;;;14.00;99.90;;;;;;5041767;28;20033;-73
2024/04/01 10:29:17;;;;;;;1999.90;999.90;;;13.90;99.90;;;;;;5034636;28;20025;-73
2024/04/01 10:32:01;;;;;;;1999.90;999.90;;;13.80;99.90;;;;;;5046252;28;20552;-73
2024/04/01 10:34:36;;;;;;;1999.90;999.90;;;13.90;99.90;;;;;;5051433;28;20037;-73
2024/04/01 10:37:16;;;;;;;1999.90;999.90;;;14.00;99.90;;;;;;5049339;28;20028;-73
2024/04/01 10:40:20;;;;;;;1999.90;999.90;;;14.10;99.90;;;;;;5053044;28;20469;-73
2024/04/01 10:43:07;;;;;;;1999.90;999.90;;;14.40;99.90;;;;;;5054145;28;20033;-73
2024/04/01 10:45:48;;;;;;;1999.90;999.90;;;14.80;99.90;;;;;;5053185;28;20029;-73
2024/04/01 10:48:15;;;;;;;1999.90;999.90;;;15.00;99.90;;;;;;5053776;28;20032;-73
2024/04/01 10:51:19;;;;;;;1999.90;999.90;;;15.10;99.90;;;;;;5053370;28;20056;-75
2024/04/01 10:53:57;;;;;;;1999.90;999.90;;;15.00;99.90;;;;;;5053741;28;20056;-74
2024/04/01 10:56:41;;;;;;;1999.90;999.90;;;15.20;99.90;;;;;;5053280;28;20037;-75
2024/04/01 10:59:16;;;;;;;1999.90;999.90;;;15.40;99.90;;;;;;5053881;28;20029;-76
2024/04/01 11:02:04;;;;;;;1999.90;999.90;;;15.50;99.90;;;;;;5052744;28;20033;-76
2024/04/01 11:04:50;;;;;;;1999.90;999.90;;;15.40;99.90;;;;;;5053637;28;20029;-76
2024/04/01 11:07:43;;;;;;;1999.90;999.90;;;15.20;99.90;;;;;;5051983;28;20386;-75
2024/04/01 11:10:16;;;;;;;1999.90;999.90;;;14.90;99.90;;;;;;5052441;28;20402;-75
2024/04/01 11:13:12;;;;;;;1999.90;999.90;;;14.90;99.90;;;;;;5051404;28;20053;-75
2024/04/01 11:15:39;;;;;;;1999.90;999.90;;;15.10;99.90;;;;;;5044599;28;20048;-76
2024/04/01 11:18:14;;;;;;;1999.90;999.90;;;15.20;99.90;;;;;;5051621;28;20033;-76
2024/04/01 11:20:44;;;;;;;1999.90;999.90;;;15.10;99.90;;;;;;5052978;28;20029;-76
2024/04/01 11:23:32;;;;;;;1999.90;999.90;;;15.00;99.90;;;;;;5051871;28;20056;-75
2024/04/01 11:26:37;;;;;;;1999.90;999.90;;;14.80;99.90;;;;;;5042772;28;20382;-75
2024/04/01 11:29:26;;;;;;;1999.90;999.90;;;14.70;99.90;;;;;;5029329;28;20041;-76
2024/04/01 11:31:59;;;;;;;1999.90;999.90;;;14.60;99.90;;;;;;5045647;28;20037;-76
2024/04/01 11:34:53;;;;;;;1999.90;999.90;;;14.40;99.90;;;;;;5051837;28;20029;-76
2024/04/01 11:37:19;;;;;;;1999.90;999.90;;;14.40;99.90;;;;;;5052728;28;20033;-76
2024/04/01 11:39:48;;;;;;;1999.90;999.90;;;14.60;99.90;;;;;;5052947;28;20029;-75
2024/04/01 11:42:14;;;;;;;1999.90;999.90;;;14.90;99.90;;;;;;5051295;28;20029;-74
2024/04/01 11:44:40;;;;;;;1999.90;999.90;;;15.20;99.90;;;;;;5051210;28;20037;-75
2024/04/01 11:47:06;;;;;;;1999.90;999.90;;;15.40;99.90;;;;;;5050222;28;20041;-76
2024/04/01 11:49:39;;;;;;;1999.90;999.90;;;15.60;99.90;;;;;;5051699;28;20045;-75
2024/04/01 11:52:16;;;;;;;1999.90;999.90;;;15.70;99.90;;;;;;5051787;28;20056;-73
2024/04/01 11:54:43;;;;;;;1999.90;999.90;;;15.60;99.90;;;;;;5052820;28;20478;-73
2024/04/01 11:57:09;;;;;;;1999.90;999.90;;;15.40;99.90;;;;;;5052441;28;20032;-73
2024/04/01 11:59:36;;;;;;;1999.90;999.90;;;15.30;99.90;;;;;;5050958;28;20049;-73
2024/04/01 12:02:12;;;;;;;1999.90;999.90;;;15.40;99.90;;;;;;5051566;28;20045;-73
2024/04/01 12:04:38;;;;;;;1999.90;999.90;;;15.50;99.90;;;;;;5051653;28;20033;-73
2024/04/01 12:07:04;;;;;;;1999.90;999.90;;;15.60;99.90;;;;;;5051208;28;20029;-73
2024/04/01 12:09:34;;;;;;;1999.90;999.90;;;15.70;99.90;;;;;;5052753;28;20037;-73
2024/04/01 12:12:00;;;;;;;1999.90;999.90;;;15.80;99.90;;;;;;5050541;28;20040;-73
2024/04/01 12:14:27;;;;;;;1999.90;999.90;;;15.70;99.90;;;;;;5051332;28;20025;-73
2024/04/01 12:16:58;;;;;;;1999.90;999.90;;;15.70;99.90;;;;;;5050787;28;20041;-73
2024/04/01 12:19:25;;;;;;;1999.90;999.90;;;15.60;99.90;;;;;;5051398;28;20044;-73
2024/04/01 12:21:51;;;;;;;1999.90;999.90;;;15.30;99.90;;;;;;5050613;28;20044;-73
2024/04/01 12:24:18;;;;;;;1999.90;999.90;;;15.10;99.90;;;;;;5050944;28;20040;-73
2024/04/01 12:26:44;;;;;;;1999.90;999.90;;;14.80;99.90;;;;;;5035005;28;20033;-74
2024/04/01 12:29:13;;;;;;;1999.90;999.90;;;14.70;99.90;;;;;;5031106;28;20429;-73
2024/04/01 12:31:51;;;;;;;1999.90;999.90;;;14.60;99.90;;;;;;5042692;28;20492;-74